Time;durP1;ratioP1;P1;durP2;ratioP2;P2;SDS_P1;SDS_P2;PMS_P1;PMS_P2;Temp;Humidity;BMP_temperature;BMP_pressure;BME280_temperature;BME280_humidity;BME280_pressure;Samples;Min_cycle;Max_cycle;Signal;HPM_P1;HPM_P2
2022/03/23 00:01:13;;;;;;;32.28;14.00;;;;;;;;;;10402435;28;20041;-67
2022/03/23 00:06:17;;;;;;;28.95;13.85;;;;;;;;;;10400705;28;20432;-70
2022/03/23 00:11:19;;;;;;;32.83;13.55;;;;;;;;;;10399920;28;20064;-71
2022/03/23 00:16:20;;;;;;;26.95;13.23;;;;;;;;;;10389424;28;20041;-71
2022/03/23 00:21:30;;;;;;;32.55;14.23;;;;;;;;;;10390386;28;20425;-70
2022/03/23 00:26:32;;;;;;;30.88;13.73;;;;;;;;;;10396137;28;20037;-69
2022/03/23 00:31:34;;;;;;;36.08;14.50;;;;;;;;;;10385640;28;20239;-69
2022/03/23 00:36:35;;;;;;;31.70;14.20;;;;;;;;;;10398636;28;20103;-70
2022/03/23 00:41:37;;;;;;;23.27;12.05;;;;;;;;;;10392933;28;20038;-71
2022/03/23 00:46:39;;;;;;;28.77;14.05;;;;;;;;;;10392226;28;20045;-69
2022/03/23 00:51:41;;;;;;;30.13;12.75;;;;;;;;;;10399333;28;20056;-70
2022/03/23 00:56:45;;;;;;;27.83;12.50;;;;;;;;;;10385989;28;20064;-70
2022/03/23 01:01:47;;;;;;;34.90;12.68;;;;;;;;;;10381511;28;20037;-67
2022/03/23 01:06:52;;;;;;;28.45;13.45;;;;;;;;;;10373479;28;20472;-69
2022/03/23 01:11:54;;;;;;;30.30;13.32;;;;;;;;;;10378465;28;20045;-70
2022/03/23 01:16:56;;;;;;;29.42;13.68;;;;;;;;;;10375101;28;20199;-70
2022/03/23 01:21:57;;;;;;;29.90;14.65;;;;;;;;;;10393608;28;20046;-69
2022/03/23 01:27:00;;;;;;;29.77;13.57;;;;;;;;;;10381221;28;20080;-70
2022/03/23 01:32:03;;;;;;;34.88;14.27;;;;;;;;;;10398598;28;20045;-69
2022/03/23 01:37:05;;;;;;;34.50;15.52;;;;;;;;;;10396911;28;20056;-69
2022/03/23 01:42:07;;;;;;;31.50;14.18;;;;;;;;;;10398969;28;20635;-69
2022/03/23 01:47:12;;;;;;;33.78;14.20;;;;;;;;;;10393149;28;20053;-70
2022/03/23 01:52:15;;;;;;;31.60;14.82;;;;;;;;;;10391451;28;20128;-70
2022/03/23 01:57:17;;;;;;;35.80;14.00;;;;;;;;;;10400158;28;20485;-70
2022/03/23 02:02:19;;;;;;;32.95;13.85;;;;;;;;;;10408311;28;20140;-67
2022/03/23 02:07:33;;;;;;;31.60;14.57;;;;;;;;;;10403763;28;20049;-70
2022/03/23 02:12:34;;;;;;;27.38;12.88;;;;;;;;;;10384804;28;20496;-70
2022/03/23 02:17:36;;;;;;;33.35;15.02;;;;;;;;;;10388032;28;20041;-70
2022/03/23 02:22:38;;;;;;;36.85;15.40;;;;;;;;;;10378256;28;20034;-70
2022/03/23 02:27:40;;;;;;;32.15;13.13;;;;;;;;;;10383100;28;20038;-69
2022/03/23 02:32:43;;;;;;;37.92;13.93;;;;;;;;;;10385412;28;20046;-70
2022/03/23 02:37:44;;;;;;;28.63;13.43;;;;;;;;;;10402691;28;20041;-69
2022/03/23 02:42:45;;;;;;;28.92;13.40;;;;;;;;;;10379726;28;20064;-69
2022/03/23 02:47:47;;;;;;;26.50;13.68;;;;;;;;;;10397380;28;20649;-70
2022/03/23 03:03:30;;;;;;;30.85;13.98;;;;;;;;;;10387057;28;20050;-70
2022/03/23 03:08:47;;;;;;;27.45;12.80;;;;;;;;;;10385621;28;20072;-69
2022/03/23 03:13:49;;;;;;;28.13;12.32;;;;;;;;;;10384348;28;20102;-71
2022/03/23 03:18:51;;;;;;;30.98;12.77;;;;;;;;;;10401665;28;20050;-70
2022/03/23 03:23:53;;;;;;;30.50;14.43;;;;;;;;;;10401055;28;20128;-71
2022/03/23 03:28:54;;;;;;;30.73;13.65;;;;;;;;;;10401092;28;20051;-70
2022/03/23 03:33:55;;;;;;;26.90;13.57;;;;;;;;;;10400073;28;20532;-69
2022/03/23 03:38:57;;;;;;;27.27;12.80;;;;;;;;;;10400726;28;20215;-70
2022/03/23 03:43:58;;;;;;;26.95;12.52;;;;;;;;;;10400576;28;20053;-70
2022/03/23 03:48:59;;;;;;;30.48;13.40;;;;;;;;;;10400806;28;20140;-70
2022/03/23 03:54:01;;;;;;;32.00;13.60;;;;;;;;;;10399595;28;20054;-71
2022/03/23 03:59:02;;;;;;;28.13;13.07;;;;;;;;;;10400750;28;20049;-69
2022/03/23 04:04:04;;;;;;;40.40;14.02;;;;;;;;;;10404877;28;20044;-70
2022/03/23 04:09:05;;;;;;;36.65;13.80;;;;;;;;;;10400740;28;20053;-68
2022/03/23 04:14:06;;;;;;;31.60;14.38;;;;;;;;;;10400014;28;20505;-70
2022/03/23 04:19:08;;;;;;;34.08;14.05;;;;;;;;;;10399334;28;20049;-69
2022/03/23 04:24:09;;;;;;;32.70;13.52;;;;;;;;;;10397372;28;20136;-68
2022/03/23 04:29:11;;;;;;;27.52;12.50;;;;;;;;;;10399079;28;20095;-70
2022/03/23 04:34:12;;;;;;;25.80;12.57;;;;;;;;;;10398036;28;20501;-69
2022/03/23 04:39:13;;;;;;;30.95;14.48;;;;;;;;;;10399297;28;20048;-69
2022/03/23 04:44:15;;;;;;;28.75;12.63;;;;;;;;;;10399061;28;20077;-70
2022/03/23 04:49:17;;;;;;;30.30;13.10;;;;;;;;;;10398991;28;20744;-71
2022/03/23 04:54:18;;;;;;;25.95;12.48;;;;;;;;;;10398033;28;20049;-69
2022/03/23 04:59:21;;;;;;;28.58;12.70;;;;;;;;;;10397985;28;20099;-70
2022/03/23 05:04:22;;;;;;;25.33;12.50;;;;;;;;;;10403758;28;20045;-70
2022/03/23 05:09:23;;;;;;;32.20;13.48;;;;;;;;;;10397924;28;20049;-70
2022/03/23 05:14:25;;;;;;;28.33;12.50;;;;;;;;;;10397618;28;20048;-69
2022/03/23 05:19:27;;;;;;;31.52;13.48;;;;;;;;;;10396783;28;20048;-69
2022/03/23 05:24:28;;;;;;;30.88;11.55;;;;;;;;;;10396418;28;20412;-69
2022/03/23 05:29:30;;;;;;;28.27;12.75;;;;;;;;;;10397219;28;20049;-70
2022/03/23 05:34:31;;;;;;;26.27;11.98;;;;;;;;;;10396801;28;20053;-68
2022/03/23 05:39:33;;;;;;;25.67;12.68;;;;;;;;;;10396268;28;20107;-70
2022/03/23 05:44:34;;;;;;;31.05;13.90;;;;;;;;;;10396520;28;20569;-69
2022/03/23 05:49:36;;;;;;;28.08;12.73;;;;;;;;;;10397373;28;20801;-69
2022/03/23 05:54:38;;;;;;;30.60;13.00;;;;;;;;;;10396327;28;20056;-69
2022/03/23 05:59:39;;;;;;;29.38;12.25;;;;;;;;;;10395984;28;20049;-70
2022/03/23 06:04:40;;;;;;;33.47;12.35;;;;;;;;;;10402102;28;20079;-68
2022/03/23 06:09:42;;;;;;;25.92;12.88;;;;;;;;;;10395319;28;20144;-70
2022/03/23 06:14:44;;;;;;;25.90;12.73;;;;;;;;;;10396760;28;20058;-69
2022/03/23 06:19:45;;;;;;;26.80;12.10;;;;;;;;;;10396067;28;20037;-70
2022/03/23 06:24:46;;;;;;;28.00;12.07;;;;;;;;;;10396396;28;20477;-70
2022/03/23 06:29:48;;;;;;;31.58;13.38;;;;;;;;;;10397942;28;20052;-70
2022/03/23 06:34:50;;;;;;;27.27;13.18;;;;;;;;;;10374886;28;20128;-71
2022/03/23 06:39:51;;;;;;;28.48;13.25;;;;;;;;;;10367798;28;20132;-70
2022/03/23 06:44:53;;;;;;;31.13;15.40;;;;;;;;;;10366370;28;20042;-70
2022/03/23 06:49:54;;;;;;;31.92;14.35;;;;;;;;;;10379875;28;20494;-69
2022/03/23 06:54:56;;;;;;;30.42;15.35;;;;;;;;;;10367933;28;20050;-69
2022/03/23 06:59:57;;;;;;;29.77;15.45;;;;;;;;;;10377649;28;20053;-68
2022/03/23 07:04:58;;;;;;;30.30;14.57;;;;;;;;;;10377755;28;20048;-68
2022/03/23 07:10:00;;;;;;;31.67;13.82;;;;;;;;;;10381599;28;20136;-70
2022/03/23 07:15:02;;;;;;;29.77;14.40;;;;;;;;;;10389026;28;20052;-70
2022/03/23 07:20:03;;;;;;;30.48;15.55;;;;;;;;;;10373600;28;20053;-70
2022/03/23 07:25:06;;;;;;;29.02;14.45;;;;;;;;;;10387315;28;20072;-70
2022/03/23 07:30:07;;;;;;;30.48;13.75;;;;;;;;;;10364569;28;20164;-70
2022/03/23 07:35:09;;;;;;;23.80;12.63;;;;;;;;;;10368260;28;20048;-69
2022/03/23 07:40:10;;;;;;;25.52;13.32;;;;;;;;;;10371855;28;20540;-73
2022/03/23 07:45:13;;;;;;;27.23;13.60;;;;;;;;;;10353833;28;20533;-71
2022/03/23 07:50:17;;;;;;;23.73;12.55;;;;;;;;;;10380303;28;20095;-71
2022/03/23 07:55:19;;;;;;;28.75;13.70;;;;;;;;;;10371554;28;20029;-72
2022/03/23 08:00:21;;;;;;;30.35;13.35;;;;;;;;;;10364186;28;20046;-69
2022/03/23 08:05:25;;;;;;;28.15;13.50;;;;;;;;;;10369420;28;20470;-71
2022/03/23 08:10:26;;;;;;;32.08;13.20;;;;;;;;;;10369104;28;20049;-71
2022/03/23 08:15:29;;;;;;;22.50;12.68;;;;;;;;;;10353878;28;20046;-72
2022/03/23 08:20:33;;;;;;;23.25;12.43;;;;;;;;;;10358198;28;20480;-70
2022/03/23 08:25:38;;;;;;;22.88;12.07;;;;;;;;;;10363798;28;20076;-71
2022/03/23 08:30:40;;;;;;;22.90;12.18;;;;;;;;;;10358813;28;20041;-70
2022/03/23 08:35:42;;;;;;;20.35;12.45;;;;;;;;;;10356559;28;20064;-70
2022/03/23 08:40:45;;;;;;;22.25;13.25;;;;;;;;;;10348480;28;20080;-70
2022/03/23 08:45:46;;;;;;;23.70;12.27;;;;;;;;;;10357465;28;20038;-71
2022/03/23 08:50:49;;;;;;;19.80;11.95;;;;;;;;;;10364955;28;20054;-70
2022/03/23 08:55:50;;;;;;;19.67;11.75;;;;;;;;;;10372712;28;20386;-70
2022/03/23 09:00:52;;;;;;;22.25;12.20;;;;;;;;;;10365710;28;20050;-69
2022/03/23 09:05:53;;;;;;;16.92;10.55;;;;;;;;;;10361082;28;20186;-70
2022/03/23 09:10:55;;;;;;;18.75;11.23;;;;;;;;;;10354261;28;20424;-71
2022/03/23 09:15:56;;;;;;;19.02;10.98;;;;;;;;;;10360089;28;20042;-70
2022/03/23 09:20:58;;;;;;;17.13;10.95;;;;;;;;;;10354876;28;20049;-69
2022/03/23 09:26:09;;;;;;;17.38;10.82;;;;;;;;;;10356800;28;20066;-67
2022/03/23 09:31:11;;;;;;;19.00;11.73;;;;;;;;;;10362825;28;20056;-68
2022/03/23 09:37:47;;;;;;;17.38;10.57;;;;;;;;;;10372694;28;20121;-70
2022/03/23 09:41:43;;;;;;;;;;;;;;;;;;10358230;28;20605;-69
2022/03/23 09:46:45;;;;;;;17.25;10.68;;;;;;;;;;10360731;28;19961;-72
2022/03/23 09:51:46;;;;;;;21.85;12.15;;;;;;;;;;10360459;28;20679;-68
2022/03/23 09:56:48;;;;;;;22.02;11.18;;;;;;;;;;10358145;28;20042;-70
2022/03/23 10:02:12;;;;;;;18.27;11.43;;;;;;;;;;10361792;28;20050;-68
2022/03/23 10:07:17;;;;;;;17.35;10.25;;;;;;;;;;10371229;28;20401;-68
2022/03/23 10:12:37;;;;;;;18.80;11.23;;;;;;;;;;10363102;28;20517;-69
2022/03/23 10:17:42;;;;;;;17.48;11.00;;;;;;;;;;10377118;28;20033;-68
2022/03/23 10:22:51;;;;;;;18.60;11.70;;;;;;;;;;10364562;28;20049;-69
2022/03/23 10:27:56;;;;;;;17.53;11.43;;;;;;;;;;10362322;28;20054;-69
2022/03/23 10:32:57;;;;;;;18.98;11.65;;;;;;;;;;10374892;28;20072;-70
2022/03/23 10:38:08;;;;;;;17.10;10.57;;;;;;;;;;10369262;28;20046;-71
2022/03/23 10:43:11;;;;;;;18.90;11.77;;;;;;;;;;10371379;28;20046;-69
2022/03/23 10:48:16;;;;;;;17.25;10.60;;;;;;;;;;10366617;28;20049;-69
2022/03/23 10:53:29;;;;;;;16.42;10.02;;;;;;;;;;10376335;28;20052;-69
2022/03/23 10:58:34;;;;;;;19.63;11.13;;;;;;;;;;10384173;28;20057;-70
2022/03/23 11:03:40;;;;;;;17.52;10.70;;;;;;;;;;10399502;28;20045;-71
2022/03/23 11:08:42;;;;;;;17.70;10.98;;;;;;;;;;10383699;28;20048;-69
2022/03/23 11:19:08;;;;;;;18.27;10.27;;;;;;;;;;10362887;28;20052;-70
2022/03/23 11:24:10;;;;;;;16.63;10.43;;;;;;;;;;10360291;28;20589;-70
2022/03/23 11:29:12;;;;;;;20.90;12.32;;;;;;;;;;10356056;28;20050;-70
2022/03/23 11:34:17;;;;;;;22.08;11.23;;;;;;;;;;10360219;28;20046;-69
2022/03/23 11:39:22;;;;;;;17.05;11.90;;;;;;;;;;10356977;28;20044;-70
2022/03/23 11:44:23;;;;;;;20.27;11.45;;;;;;;;;;10365714;28;20057;-69
2022/03/23 11:49:31;;;;;;;20.55;11.95;;;;;;;;;;10364720;28;20053;-70
2022/03/23 12:00:22;;;;;;;19.30;11.20;;;;;;;;;;10365333;28;20056;-69
2022/03/23 12:05:30;;;;;;;24.27;12.02;;;;;;;;;;10368636;28;20128;-70
2022/03/23 12:10:42;;;;;;;19.48;11.68;;;;;;;;;;10368564;28;20048;-71
2022/03/23 12:15:57;;;;;;;16.92;10.82;;;;;;;;;;10360853;28;20041;-69
2022/03/23 12:20:58;;;;;;;23.50;11.90;;;;;;;;;;10370630;28;20553;-66
2022/03/23 12:26:10;;;;;;;21.75;11.27;;;;;;;;;;10365359;28;20042;-67
2022/03/23 12:31:14;;;;;;;16.70;10.30;;;;;;;;;;10363032;28;20513;-69
2022/03/23 12:36:26;;;;;;;17.30;10.82;;;;;;;;;;10364985;28;20054;-68
2022/03/23 12:41:45;;;;;;;17.15;9.38;;;;;;;;;;10362238;28;20053;-67
2022/03/23 12:46:46;;;;;;;17.50;10.70;;;;;;;;;;10363318;28;20535;-69
2022/03/23 13:02:30;;;;;;;;;;;;;;;;;;10377922;28;20449;-68
2022/03/23 13:07:40;;;;;;;16.35;10.57;;;;;;;;;;10348480;28;19953;-66
2022/03/23 13:12:44;;;;;;;22.02;9.95;;;;;;;;;;10372095;28;20599;-70
2022/03/23 13:17:47;;;;;;;18.05;11.00;;;;;;;;;;10373338;28;20049;-69
2022/03/23 13:22:48;;;;;;;20.25;11.57;;;;;;;;;;10378367;28;20052;-69
2022/03/23 13:27:51;;;;;;;23.83;12.73;;;;;;;;;;10389493;28;20091;-68
2022/03/23 13:32:58;;;;;;;18.95;10.63;;;;;;;;;;10377092;28;20041;-70
2022/03/23 13:38:00;;;;;;;16.08;9.98;;;;;;;;;;10377441;28;20721;-68
2022/03/23 13:43:20;;;;;;;18.40;10.30;;;;;;;;;;10387428;28;20056;-78
2022/03/23 13:48:21;;;;;;;;;;;;;;;;;;10378749;28;20053;-67
2022/03/23 13:53:23;;;;;;;18.20;10.40;;;;;;;;;;10370895;28;19964;-66
2022/03/23 13:58:26;;;;;;;25.52;16.13;;;;;;;;;;10374840;28;20135;-65
2022/03/23 14:03:30;;;;;;;31.00;17.55;;;;;;;;;;10391317;28;20125;-68
2022/03/23 14:08:39;;;;;;;20.85;10.40;;;;;;;;;;10383644;28;20049;-73
2022/03/23 14:13:48;;;;;;;20.60;11.00;;;;;;;;;;10375952;28;20042;-69
2022/03/23 14:18:50;;;;;;;22.10;11.13;;;;;;;;;;10378371;28;20045;-69
2022/03/23 14:23:55;;;;;;;22.88;11.13;;;;;;;;;;10372984;28;20049;-69
2022/03/23 14:28:57;;;;;;;22.58;10.85;;;;;;;;;;10375366;28;20056;-71
2022/03/23 14:34:01;;;;;;;19.08;10.30;;;;;;;;;;10373836;28;20049;-70
2022/03/23 14:39:14;;;;;;;18.75;10.25;;;;;;;;;;10382139;28;20060;-69
2022/03/23 14:44:30;;;;;;;22.05;10.60;;;;;;;;;;10365629;28;20050;-68
2022/03/23 14:49:34;;;;;;;20.45;10.55;;;;;;;;;;10355388;28;20052;-69
2022/03/23 14:54:41;;;;;;;21.38;9.68;;;;;;;;;;10396174;28;20136;-68
2022/03/23 14:59:43;;;;;;;15.95;9.70;;;;;;;;;;10389632;28;20523;-68
2022/03/23 15:04:45;;;;;;;21.63;10.60;;;;;;;;;;10407022;28;20132;-68
2022/03/23 15:15:27;;;;;;;16.60;9.15;;;;;;;;;;10294889;28;20934;-70
2022/03/23 15:20:29;;;;;;;23.60;10.55;;;;;;;;;;10359502;28;20479;-70
2022/03/23 15:25:30;;;;;;;18.38;8.27;;;;;;;;;;10366964;28;20551;-69
2022/03/23 15:30:32;;;;;;;21.10;8.23;;;;;;;;;;10366118;28;20799;-69
2022/03/23 15:35:33;;;;;;;17.88;8.95;;;;;;;;;;10371697;28;20030;-68
2022/03/23 15:40:35;;;;;;;20.80;9.30;;;;;;;;;;10374049;28;20120;-69
2022/03/23 15:45:43;;;;;;;18.73;8.75;;;;;;;;;;10381789;28;20045;-68
2022/03/23 15:50:45;;;;;;;25.90;10.05;;;;;;;;;;10377741;28;20042;-70
2022/03/23 15:55:46;;;;;;;19.10;8.90;;;;;;;;;;10381781;28;20432;-72
2022/03/23 16:00:48;;;;;;;20.05;9.13;;;;;;;;;;10391327;28;20045;-68
2022/03/23 16:05:50;;;;;;;20.27;9.30;;;;;;;;;;10403641;28;20045;-68
2022/03/23 16:10:52;;;;;;;17.73;8.98;;;;;;;;;;10388844;28;20045;-70
2022/03/23 16:15:54;;;;;;;19.17;9.52;;;;;;;;;;10379913;28;20051;-70
2022/03/23 16:20:57;;;;;;;17.58;8.63;;;;;;;;;;10382371;28;20421;-71
2022/03/23 16:25:59;;;;;;;21.20;8.63;;;;;;;;;;10395690;28;20107;-71
2022/03/23 16:31:00;;;;;;;18.45;7.93;;;;;;;;;;10378600;28;20141;-71
2022/03/23 16:36:02;;;;;;;16.65;7.82;;;;;;;;;;10385401;28;20105;-71
2022/03/23 16:46:23;;;;;;;16.77;8.98;;;;;;;;;;10383466;28;20045;-70
2022/03/23 16:51:25;;;;;;;16.95;8.23;;;;;;;;;;10384023;28;20508;-70
2022/03/23 16:56:29;;;;;;;17.77;7.47;;;;;;;;;;10390446;28;20042;-70
2022/03/23 17:01:30;;;;;;;15.20;7.65;;;;;;;;;;10389014;28;20527;-69
2022/03/23 17:17:12;;;;;;;35.22;17.75;;;;;;;;;;10370617;28;20041;-69
2022/03/23 17:22:13;;;;;;;28.25;14.77;;;;;;;;;;10382476;28;20049;-70
2022/03/23 17:27:15;;;;;;;33.88;15.85;;;;;;;;;;10380970;28;20037;-69
2022/03/23 17:32:19;;;;;;;30.52;16.88;;;;;;;;;;10376252;28;20053;-70
2022/03/23 17:37:21;;;;;;;34.83;17.77;;;;;;;;;;10367537;28;20050;-69
2022/03/23 17:42:22;;;;;;;33.00;17.00;;;;;;;;;;10359706;28;20052;-68
2022/03/23 17:47:24;;;;;;;30.45;17.02;;;;;;;;;;10369930;28;20803;-69
2022/03/23 17:52:25;;;;;;;32.05;18.00;;;;;;;;;;10345518;28;20053;-70
2022/03/23 17:57:27;;;;;;;32.67;18.10;;;;;;;;;;10343389;28;20054;-70
2022/03/23 18:02:29;;;;;;;31.60;18.02;;;;;;;;;;10365878;28;20068;-70
2022/03/23 18:07:32;;;;;;;34.08;18.05;;;;;;;;;;10365171;28;20418;-70
2022/03/23 18:12:34;;;;;;;33.90;18.23;;;;;;;;;;10347172;28;20038;-71
2022/03/23 18:17:35;;;;;;;33.58;18.58;;;;;;;;;;10355667;28;20046;-69
2022/03/23 18:22:37;;;;;;;35.35;19.17;;;;;;;;;;10351423;28;20057;-71
2022/03/23 18:27:38;;;;;;;34.92;19.92;;;;;;;;;;10364237;28;20045;-70
2022/03/23 18:32:42;;;;;;;42.40;20.80;;;;;;;;;;10362814;28;20053;-71
2022/03/23 18:37:45;;;;;;;42.05;20.90;;;;;;;;;;10359183;28;20399;-70
2022/03/23 18:42:47;;;;;;;40.42;20.30;;;;;;;;;;10352686;28;20049;-71
2022/03/23 18:47:48;;;;;;;33.67;19.23;;;;;;;;;;10360787;28;20041;-68
2022/03/23 18:52:49;;;;;;;39.55;21.23;;;;;;;;;;10357257;28;20060;-69
2022/03/23 18:57:52;;;;;;;41.80;20.90;;;;;;;;;;10353091;28;20061;-69
2022/03/23 19:02:54;;;;;;;40.55;21.30;;;;;;;;;;10382879;28;20085;-70
2022/03/23 19:07:55;;;;;;;41.72;21.58;;;;;;;;;;10367104;28;20568;-70
2022/03/23 19:12:57;;;;;;;40.13;20.88;;;;;;;;;;10377593;28;20084;-70
2022/03/23 19:17:58;;;;;;;46.28;22.80;;;;;;;;;;10387603;28;20052;-70
2022/03/23 19:23:01;;;;;;;45.88;23.33;;;;;;;;;;10371931;28;20057;-70
2022/03/23 19:28:02;;;;;;;36.50;21.15;;;;;;;;;;10375775;28;20498;-69
2022/03/23 19:33:04;;;;;;;41.78;22.73;;;;;;;;;;10375448;28;20041;-68
2022/03/23 19:38:05;;;;;;;41.33;22.10;;;;;;;;;;10383609;28;20055;-69
2022/03/23 19:43:07;;;;;;;42.50;21.30;;;;;;;;;;10382864;28;20049;-69
2022/03/23 19:48:08;;;;;;;43.13;21.67;;;;;;;;;;10366438;28;20049;-68
2022/03/23 19:53:10;;;;;;;40.63;22.63;;;;;;;;;;10381579;28;20155;-68
2022/03/23 19:58:12;;;;;;;42.90;21.52;;;;;;;;;;10387659;28;20049;-69
2022/03/23 20:03:16;;;;;;;45.72;25.20;;;;;;;;;;10396332;28;20505;-69
2022/03/23 20:08:18;;;;;;;49.70;23.05;;;;;;;;;;10371068;28;20049;-69
2022/03/23 20:13:20;;;;;;;39.92;21.70;;;;;;;;;;10368539;28;20057;-68
2022/03/23 20:18:21;;;;;;;45.95;23.15;;;;;;;;;;10380166;28;20421;-67
2022/03/23 20:23:23;;;;;;;45.58;22.20;;;;;;;;;;10375132;28;20056;-69
2022/03/23 20:28:25;;;;;;;42.63;21.80;;;;;;;;;;10374254;28;20045;-69
2022/03/23 20:33:26;;;;;;;43.60;22.17;;;;;;;;;;10358669;28;20057;-68
2022/03/23 20:38:28;;;;;;;43.22;22.27;;;;;;;;;;10382470;28;20059;-68
2022/03/23 20:43:32;;;;;;;43.95;21.83;;;;;;;;;;10372466;28;20398;-68
2022/03/23 20:48:36;;;;;;;43.55;22.27;;;;;;;;;;10369597;28;20037;-68
2022/03/23 20:53:38;;;;;;;40.92;21.85;;;;;;;;;;10381659;28;20045;-70
2022/03/23 20:58:40;;;;;;;39.95;20.88;;;;;;;;;;10380851;28;20050;-69
2022/03/23 21:03:42;;;;;;;46.95;23.48;;;;;;;;;;10358415;28;20052;-68
2022/03/23 21:08:45;;;;;;;44.22;23.05;;;;;;;;;;10345332;28;20068;-69
2022/03/23 21:13:47;;;;;;;41.20;21.60;;;;;;;;;;10369217;28;20999;-68
2022/03/23 21:18:48;;;;;;;43.45;22.40;;;;;;;;;;10368721;28;20493;-69
2022/03/23 21:23:49;;;;;;;48.13;22.52;;;;;;;;;;10373949;28;20037;-68
2022/03/23 21:28:51;;;;;;;46.35;23.10;;;;;;;;;;10370235;28;20696;-69
2022/03/23 21:33:52;;;;;;;46.22;22.45;;;;;;;;;;10377465;28;20448;-68
2022/03/23 21:38:53;;;;;;;46.45;23.23;;;;;;;;;;10385382;28;20068;-67
2022/03/23 21:43:55;;;;;;;49.15;22.73;;;;;;;;;;10378280;28;20072;-67
2022/03/23 21:48:56;;;;;;;43.30;22.67;;;;;;;;;;10377644;28;20132;-69
2022/03/23 21:53:58;;;;;;;48.40;22.73;;;;;;;;;;10386314;28;20170;-67
2022/03/23 21:58:59;;;;;;;44.63;22.40;;;;;;;;;;10342390;28;20049;-68
2022/03/23 22:04:00;;;;;;;44.80;21.95;;;;;;;;;;10398132;28;20145;-67
2022/03/23 22:09:02;;;;;;;44.55;21.70;;;;;;;;;;10380056;28;20076;-68
2022/03/23 22:14:04;;;;;;;45.92;21.25;;;;;;;;;;10390493;28;20050;-68
2022/03/23 22:19:05;;;;;;;42.58;22.02;;;;;;;;;;10357153;28;20053;-67
2022/03/23 22:24:06;;;;;;;39.75;21.08;;;;;;;;;;10386052;28;20571;-67
2022/03/23 22:29:09;;;;;;;47.78;22.27;;;;;;;;;;10386621;28;20649;-68
2022/03/23 22:34:10;;;;;;;40.22;22.10;;;;;;;;;;10382013;28;20130;-67
2022/03/23 22:39:12;;;;;;;44.17;22.77;;;;;;;;;;10392990;28;20061;-68
2022/03/23 22:44:13;;;;;;;42.85;21.80;;;;;;;;;;10392962;28;20675;-67
2022/03/23 22:49:14;;;;;;;42.58;20.48;;;;;;;;;;10380417;28;20049;-68
2022/03/23 22:54:16;;;;;;;43.83;22.33;;;;;;;;;;10387743;28;20042;-67
2022/03/23 22:59:17;;;;;;;48.33;23.55;;;;;;;;;;10372247;28;20038;-67
2022/03/23 23:04:19;;;;;;;41.42;20.83;;;;;;;;;;10394291;28;20535;-67
2022/03/23 23:09:20;;;;;;;46.90;22.13;;;;;;;;;;10387177;28;20069;-67
2022/03/23 23:14:22;;;;;;;42.90;21.35;;;;;;;;;;10382064;28;20054;-68
2022/03/23 23:19:23;;;;;;;43.17;21.80;;;;;;;;;;10388445;28;20037;-67
2022/03/23 23:24:24;;;;;;;49.95;22.95;;;;;;;;;;10383297;28;20064;-67
2022/03/23 23:29:40;;;;;;;55.97;23.38;;;;;;;;;;10379874;28;20048;-68
2022/03/23 23:34:41;;;;;;;46.75;23.05;;;;;;;;;;10388431;28;20064;-68
2022/03/23 23:39:43;;;;;;;43.88;21.58;;;;;;;;;;10390842;28;20042;-67
2022/03/23 23:44:45;;;;;;;44.05;22.23;;;;;;;;;;10399046;28;20037;-67
2022/03/23 23:49:46;;;;;;;44.97;23.15;;;;;;;;;;10387533;28;20071;-67
2022/03/23 23:54:48;;;;;;;47.58;23.33;;;;;;;;;;10393863;28;20052;-66
2022/03/23 23:59:49;;;;;;;51.28;23.60;;;;;;;;;;10397127;28;20398;-67
